createdAt,value
2022-12-05T00:01:40.351Z,23.35
2022-12-05T00:04:12.052Z,20.87
2022-12-05T00:06:41.822Z,19.35
2022-12-05T00:09:12.368Z,21.80
2022-12-05T00:11:44.068Z,25.48
2022-12-05T00:14:13.421Z,46.23
2022-12-05T00:16:43.720Z,28.57
2022-12-05T00:19:14.672Z,30.92
2022-12-05T00:21:42.890Z,34.27
2022-12-05T00:24:14.793Z,27.13
2022-12-05T00:26:43.567Z,26.48
2022-12-05T00:29:12.151Z,25.08
2022-12-05T00:31:40.562Z,21.87
2022-12-05T00:34:08.150Z,23.45
2022-12-05T00:36:37.295Z,27.22
2022-12-05T00:39:10.225Z,27.90
2022-12-05T00:41:38.484Z,29.85
2022-12-05T00:44:06.341Z,21.77
2022-12-05T00:46:35.681Z,25.75
2022-12-05T00:49:05.874Z,34.03
2022-12-05T00:51:40.416Z,34.85
2022-12-05T00:54:13.238Z,34.73
2022-12-05T00:56:41.995Z,32.38
2022-12-05T00:59:16.894Z,33.50
2022-12-05T01:01:46.646Z,25.52
2022-12-05T01:04:21.122Z,28.35
2022-12-05T01:06:50.929Z,40.23
2022-12-05T01:09:20.767Z,54.20
2022-12-05T01:11:49.684Z,37.58
2022-12-05T01:14:20.301Z,28.80
2022-12-05T01:16:50.541Z,27.22
2022-12-05T01:19:23.642Z,23.52
2022-12-05T01:21:52.717Z,19.98
2022-12-05T01:24:24.211Z,17.65
2022-12-05T01:26:53.739Z,17.98
2022-12-05T01:29:24.149Z,14.98
2022-12-05T01:31:55.342Z,12.45
2022-12-05T01:34:25.825Z,17.80
2022-12-05T01:36:53.835Z,16.73
2022-12-05T01:39:24.981Z,15.80
2022-12-05T01:41:54.259Z,12.73
2022-12-05T01:44:31.267Z,11.20
2022-12-05T01:47:02.718Z,13.48
2022-12-05T01:49:38.068Z,20.60
2022-12-05T01:52:23.122Z,18.80
2022-12-05T01:54:55.754Z,16.67
2022-12-05T01:57:25.088Z,16.07
2022-12-05T01:59:59.096Z,16.62
2022-12-05T02:05:22.158Z,12.82
2022-12-05T02:07:49.924Z,14.40
2022-12-05T02:10:18.662Z,15.98
2022-12-05T02:12:46.945Z,13.15
2022-12-05T02:15:37.689Z,10.82
2022-12-05T02:18:52.217Z,13.98
2022-12-05T02:21:47.567Z,17.63
2022-12-05T02:25:12.500Z,16.80
2022-12-05T02:28:02.386Z,14.68
2022-12-05T02:30:40.162Z,12.53
2022-12-05T02:33:54.311Z,9.75
2022-12-05T02:36:35.948Z,10.80
2022-12-05T02:39:23.579Z,11.15
2022-12-05T02:42:02.239Z,11.38
2022-12-05T02:44:41.283Z,18.23
2022-12-05T02:47:09.938Z,21.17
2022-12-05T02:49:39.751Z,28.45
2022-12-05T02:52:11.356Z,36.10
2022-12-05T02:54:42.642Z,32.58
2022-12-05T02:57:12.187Z,15.95
2022-12-05T02:59:40.037Z,15.78
2022-12-05T03:02:33.649Z,11.10
2022-12-05T03:07:48.912Z,10.80
2022-12-05T03:10:21.310Z,9.95
2022-12-05T03:12:56.122Z,12.78
2022-12-05T03:15:32.096Z,10.53
2022-12-05T03:18:12.631Z,12.78
2022-12-05T03:20:47.683Z,7.87
2022-12-05T03:23:31.275Z,10.03
2022-12-05T03:26:33.383Z,12.98
2022-12-05T03:29:12.222Z,14.23
2022-12-05T03:31:59.979Z,13.35
2022-12-05T03:34:54.061Z,12.30
2022-12-05T03:40:12.424Z,11.97
2022-12-05T03:42:45.316Z,12.55
2022-12-05T03:45:18.612Z,17.92
2022-12-05T03:47:54.587Z,27.20
2022-12-05T03:50:28.722Z,25.37
2022-12-05T03:55:35.570Z,32.00
2022-12-05T03:58:11.955Z,20.17
2022-12-05T04:00:43.863Z,17.73
2022-12-05T04:03:20.033Z,18.37
2022-12-05T04:06:01.350Z,19.55
2022-12-05T04:08:37.039Z,20.92
2022-12-05T04:11:19.083Z,22.98
2022-12-05T04:13:54.075Z,18.57
2022-12-05T04:16:48.108Z,23.38
2022-12-05T04:19:50.317Z,21.77
2022-12-05T04:22:19.853Z,17.98
2022-12-05T04:25:07.942Z,19.20
2022-12-05T04:28:03.691Z,19.27
2022-12-05T04:31:11.443Z,15.35
2022-12-05T04:33:59.327Z,19.87
2022-12-05T04:36:43.524Z,24.00
2022-12-05T04:39:25.538Z,24.63
2022-12-05T04:42:04.300Z,24.25
2022-12-05T04:44:51.671Z,23.10
2022-12-05T04:47:22.613Z,23.87
2022-12-05T04:49:54.211Z,25.65
2022-12-05T04:52:22.465Z,25.75
2022-12-05T04:54:58.552Z,34.38
2022-12-05T04:57:31.017Z,34.80
2022-12-05T04:59:58.786Z,32.60
2022-12-05T05:02:34.888Z,35.52
2022-12-05T05:05:10.934Z,32.45
2022-12-05T05:07:50.649Z,36.73
2022-12-05T05:10:33.039Z,33.65
2022-12-05T05:13:00.528Z,44.10
2022-12-05T05:15:28.218Z,54.35
2022-12-05T05:17:55.777Z,46.60
2022-12-05T05:20:23.468Z,48.48
2022-12-05T05:22:54.353Z,51.53
2022-12-05T05:25:24.938Z,61.92
2022-12-05T05:27:55.651Z,63.55
2022-12-05T05:30:24.715Z,56.75
2022-12-05T05:32:54.024Z,52.38
2022-12-05T05:35:22.161Z,48.00
2022-12-05T05:37:49.764Z,50.78
2022-12-05T05:40:17.904Z,45.23
2022-12-05T05:42:48.224Z,35.95
2022-12-05T05:45:16.955Z,30.23
2022-12-05T05:47:45.056Z,31.23
2022-12-05T05:50:17.813Z,25.90
2022-12-05T05:52:42.001Z,35.15
2022-12-05T05:55:10.268Z,45.52
2022-12-05T05:57:37.734Z,51.63
2022-12-05T06:00:07.743Z,45.10
2022-12-05T06:02:36.187Z,41.15
2022-12-05T06:05:05.232Z,45.67
2022-12-05T06:07:32.671Z,60.58
2022-12-05T06:10:00.717Z,55.52
2022-12-05T06:12:28.772Z,39.78
2022-12-05T06:14:56.610Z,41.98
2022-12-05T06:17:24.192Z,35.80
2022-12-05T06:19:51.823Z,93.78
2022-12-05T06:22:19.148Z,86.65
2022-12-05T06:24:47.040Z,66.70
2022-12-05T06:27:14.624Z,47.25
2022-12-05T06:29:42.651Z,46.00
2022-12-05T06:32:10.101Z,50.00
2022-12-05T06:34:37.711Z,43.73
2022-12-05T06:37:05.365Z,36.30
2022-12-05T06:39:33.199Z,34.35
2022-12-05T06:42:00.944Z,34.20
2022-12-05T06:44:28.777Z,31.12
2022-12-05T06:46:56.197Z,43.70
2022-12-05T06:49:30.750Z,34.08
2022-12-05T06:51:55.557Z,44.25
2022-12-05T06:54:22.953Z,53.63
2022-12-05T06:56:50.680Z,51.23
2022-12-05T06:59:18.124Z,90.87
2022-12-05T07:01:46.543Z,86.87
2022-12-05T07:04:23.004Z,84.07
2022-12-05T07:06:51.829Z,86.65
2022-12-05T07:09:25.031Z,70.32
2022-12-05T07:11:52.538Z,59.75
2022-12-05T07:16:51.134Z,39.27
2022-12-05T07:19:18.641Z,38.98
2022-12-05T07:21:46.015Z,42.78
2022-12-05T07:24:13.568Z,43.60
2022-12-05T07:26:41.228Z,47.98
2022-12-05T07:29:10.347Z,42.03
2022-12-05T07:31:38.057Z,44.18
2022-12-05T07:34:05.639Z,53.78
2022-12-05T07:36:32.972Z,76.33
2022-12-05T07:39:00.639Z,92.53
2022-12-05T07:41:30.729Z,75.20
2022-12-05T07:44:00.060Z,48.60
2022-12-05T07:46:29.060Z,44.95
2022-12-05T07:48:57.604Z,49.33
2022-12-05T07:51:25.259Z,44.38
2022-12-05T07:53:52.937Z,51.48
2022-12-05T07:56:21.272Z,56.68
2022-12-05T07:58:50.209Z,46.35
2022-12-05T08:01:22.685Z,46.28
2022-12-05T08:03:52.865Z,44.58
2022-12-05T08:06:24.352Z,50.33
2022-12-05T08:08:54.066Z,50.40
2022-12-05T08:11:26.136Z,42.62
2022-12-05T08:13:54.310Z,37.48
2022-12-05T08:16:25.805Z,36.70
2022-12-05T08:19:05.453Z,40.45
2022-12-05T08:21:34.179Z,38.67
2022-12-05T08:24:07.870Z,41.88
2022-12-05T08:26:36.645Z,32.78
2022-12-05T08:29:11.188Z,36.28
2022-12-05T08:31:48.504Z,34.58
2022-12-05T08:34:19.517Z,31.40
2022-12-05T08:36:47.712Z,31.25
2022-12-05T08:39:18.472Z,34.85
2022-12-05T08:41:47.708Z,32.15
2022-12-05T08:44:16.582Z,50.00
2022-12-05T08:46:48.144Z,41.48
2022-12-05T08:49:17.306Z,51.28
2022-12-05T08:51:45.523Z,55.17
2022-12-05T08:54:13.165Z,59.63
2022-12-05T08:56:41.376Z,44.75
2022-12-05T08:59:08.761Z,42.00
2022-12-05T09:01:38.253Z,43.75
2022-12-05T09:04:07.345Z,44.65
2022-12-05T09:06:36.244Z,34.27
2022-12-05T09:09:07.851Z,32.40
2022-12-05T09:11:41.904Z,34.15
2022-12-05T09:14:09.531Z,26.30
2022-12-05T09:16:39.420Z,37.00
2022-12-05T09:19:20.350Z,32.28
2022-12-05T09:21:48.073Z,32.73
2022-12-05T09:24:15.812Z,31.62
2022-12-05T09:26:44.942Z,33.92
2022-12-05T09:29:17.053Z,30.55
2022-12-05T09:31:45.644Z,31.33
2022-12-05T09:34:14.398Z,28.20
2022-12-05T09:36:43.083Z,30.77
2022-12-05T09:39:11.182Z,35.00
2022-12-05T09:42:31.536Z,35.08
2022-12-05T09:45:19.788Z,32.80
2022-12-05T09:48:12.105Z,31.25
2022-12-05T09:51:01.539Z,27.45
2022-12-05T09:53:33.884Z,29.77
2022-12-05T09:56:15.226Z,32.58
2022-12-05T09:58:47.202Z,22.80
2022-12-05T10:01:32.546Z,29.52
2022-12-05T10:04:17.767Z,25.20
2022-12-05T10:07:11.973Z,21.05
2022-12-05T10:10:20.519Z,27.55
2022-12-05T10:13:21.181Z,29.05
2022-12-05T10:15:57.260Z,27.73
2022-12-05T10:18:55.571Z,24.15
2022-12-05T10:21:30.863Z,27.60
2022-12-05T10:24:02.525Z,27.02
2022-12-05T10:26:37.060Z,25.65
2022-12-05T10:29:13.042Z,27.17
2022-12-05T10:31:42.871Z,21.33
2022-12-05T10:34:25.452Z,19.52
2022-12-05T10:37:01.376Z,19.12
2022-12-05T10:39:28.936Z,17.67
2022-12-05T10:41:56.571Z,20.37
2022-12-05T10:44:24.861Z,17.32
2022-12-05T10:46:52.630Z,18.77
2022-12-05T10:49:21.745Z,21.82
2022-12-05T10:51:50.317Z,21.90
2022-12-05T10:54:28.157Z,26.73
2022-12-05T10:56:55.974Z,20.17
2022-12-05T10:59:28.025Z,25.60
2022-12-05T11:01:58.649Z,29.05
2022-12-05T11:04:43.593Z,26.23
2022-12-05T11:07:31.974Z,26.10
2022-12-05T11:10:04.012Z,24.35
2022-12-05T11:12:38.499Z,24.92
2022-12-05T11:15:24.906Z,27.40
2022-12-05T11:17:55.584Z,25.65
2022-12-05T11:20:28.474Z,22.93
2022-12-05T11:22:58.662Z,22.37
2022-12-05T11:25:31.437Z,29.40
2022-12-05T11:28:15.925Z,32.23
2022-12-05T11:31:16.187Z,23.50
2022-12-05T11:33:49.321Z,21.17
2022-12-05T11:36:23.876Z,22.27
2022-12-05T11:38:52.349Z,30.00
2022-12-05T11:41:40.343Z,26.37
2022-12-05T11:44:25.637Z,21.90
2022-12-05T11:47:33.839Z,19.10
2022-12-05T11:50:36.918Z,15.35
2022-12-05T11:53:19.031Z,17.85
2022-12-05T11:56:04.052Z,21.45
2022-12-05T11:59:02.804Z,17.30
2022-12-05T12:02:09.251Z,20.60
2022-12-05T12:05:06.735Z,29.90
2022-12-05T12:08:14.811Z,30.97
2022-12-05T12:11:24.565Z,26.30
2022-12-05T12:14:09.806Z,32.45
2022-12-05T12:17:00.681Z,27.80
2022-12-05T12:19:57.240Z,30.43
2022-12-05T12:22:36.135Z,21.42
2022-12-05T12:25:22.372Z,25.02
2022-12-05T12:28:10.401Z,27.87
2022-12-05T12:31:03.453Z,28.87
2022-12-05T12:33:45.790Z,40.83
2022-12-05T12:36:40.003Z,41.98
2022-12-05T12:39:29.913Z,29.50
2022-12-05T12:42:23.822Z,20.80
2022-12-05T12:45:06.082Z,18.42
2022-12-05T12:48:03.101Z,24.15
2022-12-05T12:50:36.599Z,22.37
2022-12-05T12:53:32.729Z,17.95
2022-12-05T12:56:11.459Z,21.52
2022-12-05T12:59:23.230Z,23.50
2022-12-05T13:02:25.471Z,20.40
2022-12-05T13:05:23.093Z,19.40
2022-12-05T13:08:19.142Z,23.00
2022-12-05T13:10:48.908Z,41.30
2022-12-05T13:13:27.458Z,48.30
2022-12-05T13:16:00.261Z,42.75
2022-12-05T13:18:28.388Z,38.88
2022-12-05T13:21:00.865Z,40.58
2022-12-05T13:23:32.944Z,41.13
2022-12-05T13:26:04.966Z,37.10
2022-12-05T13:28:55.605Z,40.03
2022-12-05T13:31:42.055Z,39.25
2022-12-05T13:34:34.698Z,34.13
2022-12-05T13:37:31.770Z,32.42
2022-12-05T13:40:17.861Z,36.65
2022-12-05T13:42:48.071Z,43.48
2022-12-05T13:45:20.064Z,41.53
2022-12-05T13:47:56.597Z,41.77
2022-12-05T13:50:45.376Z,52.88
2022-12-05T13:53:39.238Z,50.08
2022-12-05T13:56:20.965Z,54.67
2022-12-05T13:58:57.254Z,50.17
2022-12-05T14:01:48.973Z,48.10
2022-12-05T14:04:47.527Z,44.30
2022-12-05T14:07:36.439Z,42.93
2022-12-05T14:10:05.531Z,39.38
2022-12-05T14:12:53.568Z,29.80
2022-12-05T14:15:38.234Z,31.60
2022-12-05T14:18:20.188Z,32.80
2022-12-05T14:21:05.231Z,36.38
2022-12-05T14:24:10.629Z,44.48
2022-12-05T14:26:59.617Z,41.15
2022-12-05T14:30:08.839Z,42.38
2022-12-05T14:32:41.704Z,52.50
2022-12-05T14:35:33.667Z,50.57
2022-12-05T14:38:06.457Z,54.03
2022-12-05T14:40:37.956Z,77.05
2022-12-05T14:43:27.838Z,83.67
2022-12-05T14:46:03.378Z,74.17
2022-12-05T14:48:47.297Z,86.45
2022-12-05T14:51:35.533Z,125.27
2022-12-05T14:54:16.394Z,152.68
2022-12-05T14:56:54.952Z,149.75
2022-12-05T14:59:51.761Z,164.35
2022-12-05T15:02:27.151Z,162.90
2022-12-05T15:05:27.137Z,144.57
2022-12-05T15:07:58.861Z,132.40
2022-12-05T15:10:42.515Z,125.72
2022-12-05T15:13:17.373Z,116.25
2022-12-05T15:16:05.802Z,132.87
2022-12-05T15:18:57.305Z,130.47
2022-12-05T15:21:43.162Z,139.92
2022-12-05T15:24:17.189Z,137.00
2022-12-05T15:26:52.798Z,151.65
2022-12-05T15:29:25.924Z,162.65
2022-12-05T15:32:19.722Z,144.47
2022-12-05T15:35:09.431Z,132.03
2022-12-05T15:37:57.127Z,130.03
2022-12-05T15:40:25.698Z,100.40
2022-12-05T15:42:56.077Z,109.12
2022-12-05T15:45:29.473Z,99.62
2022-12-05T15:48:11.336Z,111.03
2022-12-05T15:50:49.296Z,90.62
2022-12-05T15:53:46.422Z,112.70
2022-12-05T15:56:21.898Z,89.72
2022-12-05T15:59:18.845Z,109.00
2022-12-05T16:01:52.177Z,154.60
2022-12-05T16:04:29.408Z,169.37
2022-12-05T16:06:56.292Z,196.90
2022-12-05T16:09:31.393Z,212.40
2022-12-05T16:12:28.868Z,208.65
2022-12-05T16:15:01.945Z,242.20
2022-12-05T16:17:40.106Z,234.62
2022-12-05T16:20:31.536Z,220.27
2022-12-05T16:23:07.702Z,224.27
2022-12-05T16:25:36.970Z,207.18
2022-12-05T16:28:16.164Z,198.93
2022-12-05T16:31:02.047Z,168.85
2022-12-05T16:33:31.669Z,160.40
2022-12-05T16:36:13.607Z,173.40
2022-12-05T16:38:42.679Z,153.60
2022-12-05T16:41:12.006Z,161.75
2022-12-05T16:43:44.812Z,165.75
2022-12-05T16:46:19.829Z,138.72
2022-12-05T16:49:08.073Z,134.45
2022-12-05T16:51:45.335Z,117.17
2022-12-05T16:54:12.765Z,105.03
2022-12-05T16:56:41.633Z,105.30
2022-12-05T16:59:14.131Z,107.25
2022-12-05T17:01:41.837Z,161.55
2022-12-05T17:04:11.286Z,145.75
2022-12-05T17:06:39.267Z,151.65
2022-12-05T17:09:06.848Z,174.50
2022-12-05T17:11:38.341Z,146.93
2022-12-05T17:14:10.762Z,139.35
2022-12-05T17:16:38.631Z,144.47
2022-12-05T17:19:06.379Z,138.22
2022-12-05T17:21:35.197Z,120.25
2022-12-05T17:24:03.335Z,129.63
2022-12-05T17:26:31.478Z,126.22
2022-12-05T17:28:58.955Z,127.40
2022-12-05T17:31:26.545Z,124.95
2022-12-05T17:33:56.611Z,122.62
2022-12-05T17:36:24.144Z,125.82
2022-12-05T17:38:51.940Z,135.43
2022-12-05T17:41:23.295Z,127.80
2022-12-05T17:43:52.359Z,153.10
2022-12-05T17:46:23.234Z,186.55
2022-12-05T17:48:51.950Z,166.82
2022-12-05T17:51:20.495Z,182.85
2022-12-05T17:53:48.571Z,223.60
2022-12-05T17:56:16.689Z,202.15
2022-12-05T17:58:44.768Z,219.82
2022-12-05T18:01:19.067Z,257.62
2022-12-05T18:03:48.328Z,266.93
2022-12-05T18:06:16.955Z,253.80
2022-12-05T18:08:45.310Z,238.43
2022-12-05T18:11:14.318Z,223.90
2022-12-05T18:13:42.166Z,231.53
2022-12-05T18:16:10.566Z,196.12
2022-12-05T18:18:39.025Z,216.57
2022-12-05T18:21:11.109Z,245.95
2022-12-05T18:23:40.188Z,219.50
2022-12-05T18:26:10.322Z,194.43
2022-12-05T18:28:41.203Z,194.17
2022-12-05T18:31:14.819Z,204.67
2022-12-05T18:33:44.504Z,193.40
2022-12-05T18:36:17.255Z,186.57
2022-12-05T18:38:54.973Z,178.37
2022-12-05T18:41:25.939Z,196.68
2022-12-05T18:43:54.379Z,185.22
2022-12-05T18:46:22.161Z,175.78
2022-12-05T18:48:49.713Z,154.93
2022-12-05T18:51:23.474Z,168.10
2022-12-05T18:53:53.840Z,159.90
2022-12-05T18:56:26.549Z,169.02
2022-12-05T18:59:04.235Z,187.25
2022-12-05T19:01:35.542Z,155.48
2022-12-05T19:04:05.923Z,144.80
2022-12-05T19:06:39.312Z,137.72
2022-12-05T19:09:11.942Z,138.50
2022-12-05T19:11:47.704Z,126.10
2022-12-05T19:14:20.822Z,140.85
2022-12-05T19:16:57.869Z,121.70
2022-12-05T19:19:21.506Z,117.22
2022-12-05T19:21:48.930Z,137.57
2022-12-05T19:24:19.018Z,137.75
2022-12-05T19:26:47.694Z,127.80
2022-12-05T19:29:16.141Z,110.42
2022-12-05T19:31:44.706Z,110.45
2022-12-05T19:34:12.696Z,109.17
2022-12-05T19:36:44.123Z,104.63
2022-12-05T19:39:23.559Z,91.10
2022-12-05T19:41:51.762Z,75.92
2022-12-05T19:44:19.389Z,63.68
2022-12-05T19:46:49.126Z,58.33
2022-12-05T19:49:16.977Z,65.87
2022-12-05T19:51:45.914Z,68.37
2022-12-05T19:54:16.827Z,70.87
2022-12-05T19:56:45.075Z,73.87
2022-12-05T19:59:16.842Z,84.40
2022-12-05T20:01:45.095Z,81.75
2022-12-05T20:04:16.956Z,80.17
2022-12-05T20:06:48.174Z,68.80
2022-12-05T20:09:18.993Z,73.12
2022-12-05T20:11:55.244Z,81.87
2022-12-05T20:14:21.080Z,75.03
2022-12-05T20:16:49.740Z,68.62
2022-12-05T20:19:17.630Z,64.58
2022-12-05T20:21:45.172Z,64.50
2022-12-05T20:24:12.719Z,74.22
2022-12-05T20:26:43.805Z,79.90
2022-12-05T20:29:12.026Z,76.17
2022-12-05T20:31:43.448Z,77.45
2022-12-05T20:34:13.128Z,79.15
2022-12-05T20:36:41.271Z,68.60
2022-12-05T20:39:13.349Z,71.00
2022-12-05T20:41:41.245Z,72.65
2022-12-05T20:44:13.435Z,54.35
2022-12-05T20:46:41.567Z,41.25
2022-12-05T20:49:12.095Z,30.70
2022-12-05T20:51:43.771Z,27.22
2022-12-05T20:54:12.718Z,29.82
2022-12-05T20:56:40.894Z,123.35
2022-12-05T20:59:11.652Z,146.37
2022-12-05T21:01:40.603Z,101.22
2022-12-05T21:04:10.338Z,81.95
2022-12-05T21:06:42.328Z,97.57
2022-12-05T21:09:12.867Z,89.00
2022-12-05T21:11:41.619Z,70.12
2022-12-05T21:14:09.219Z,61.35
2022-12-05T21:16:37.223Z,63.83
2022-12-05T21:19:04.859Z,57.15
2022-12-05T21:21:33.541Z,56.48
2022-12-05T21:24:03.437Z,66.07
2022-12-05T21:26:34.205Z,71.15
2022-12-05T21:29:03.736Z,57.08
2022-12-05T21:31:41.763Z,51.83
2022-12-05T21:34:16.654Z,47.08
2022-12-05T21:36:45.021Z,42.98
2022-12-05T21:39:13.650Z,44.75
2022-12-05T21:41:41.424Z,46.85
2022-12-05T21:44:09.296Z,45.98
2022-12-05T21:46:37.103Z,42.70
2022-12-05T21:49:05.158Z,46.73
2022-12-05T21:51:33.045Z,42.80
2022-12-05T21:54:00.739Z,38.78
2022-12-05T21:56:28.933Z,36.75
2022-12-05T21:58:56.628Z,31.77
2022-12-05T22:01:27.128Z,30.55
2022-12-05T22:04:00.322Z,31.90
2022-12-05T22:06:33.857Z,35.35
2022-12-05T22:09:02.447Z,42.78
2022-12-05T22:11:30.651Z,38.42
2022-12-05T22:13:58.514Z,31.12
2022-12-05T22:16:32.361Z,30.10
2022-12-05T22:18:55.528Z,32.80
2022-12-05T22:21:23.507Z,35.10
2022-12-05T22:23:50.925Z,31.95
2022-12-05T22:26:22.492Z,26.25
2022-12-05T22:28:52.673Z,24.70
2022-12-05T22:31:21.612Z,21.75
2022-12-05T22:33:49.599Z,20.15
2022-12-05T22:36:19.180Z,22.93
2022-12-05T22:38:48.059Z,22.55
2022-12-05T22:41:23.593Z,24.92
2022-12-05T22:43:56.159Z,23.52
2022-12-05T22:46:26.089Z,27.40
2022-12-05T22:48:53.910Z,27.62
2022-12-05T22:51:22.883Z,23.57
2022-12-05T22:53:52.084Z,24.43
2022-12-05T22:56:22.720Z,20.43
2022-12-05T22:58:58.136Z,25.85
2022-12-05T23:01:31.096Z,23.57
2022-12-05T23:04:05.309Z,24.32
2022-12-05T23:06:34.977Z,27.22
2022-12-05T23:09:06.271Z,23.50
2022-12-05T23:11:34.428Z,22.62
2022-12-05T23:14:02.806Z,21.62
2022-12-05T23:16:33.070Z,22.45
2022-12-05T23:19:04.169Z,22.10
2022-12-05T23:21:37.116Z,20.62
2022-12-05T23:24:09.490Z,21.05
2022-12-05T23:26:43.671Z,23.87
2022-12-05T23:29:12.785Z,23.02
2022-12-05T23:31:41.454Z,20.72
2022-12-05T23:34:09.589Z,19.55
2022-12-05T23:36:37.789Z,20.02
2022-12-05T23:39:05.392Z,20.23
2022-12-05T23:41:33.681Z,24.18
2022-12-05T23:44:03.101Z,21.48
2022-12-05T23:46:31.239Z,20.95
2022-12-05T23:48:58.926Z,20.57
2022-12-05T23:51:30.667Z,20.02
2022-12-05T23:54:00.952Z,17.73
2022-12-05T23:56:32.400Z,18.37
2022-12-05T23:59:02.038Z,22.10
